Time;durP1;ratioP1;P1;durP2;ratioP2;P2;SDS_P1;SDS_P2;PMS_P1;PMS_P2;Temp;Humidity;BMP_temperature;BMP_pressure;BME280_temperature;BME280_humidity;BME280_pressure;Samples;Min_cycle;Max_cycle;Signal;HPM_P1;HPM_P2
2023/11/16 00:00:48;;;;;;;2.97;1.27;;;;;;;7.67;100.00;100792.75;5055476;28;20509;-69
2023/11/16 00:03:14;;;;;;;3.10;1.07;;;;;;;7.73;100.00;100797.84;5055410;28;20454;-69
2023/11/16 00:05:44;;;;;;;3.37;1.10;;;;;;;7.74;100.00;100785.97;5055445;28;21021;-69
2023/11/16 00:08:11;;;;;;;2.40;1.00;;;;;;;7.80;100.00;100795.66;5056487;28;20863;-69
2023/11/16 00:10:39;;;;;;;3.73;1.17;;;;;;;7.84;100.00;100794.03;5055685;28;20963;-69
2023/11/16 00:13:09;;;;;;;3.07;1.07;;;;;;;7.90;100.00;100796.69;5055461;28;20442;-69
2023/11/16 00:15:36;;;;;;;3.10;1.50;;;;;;;7.91;100.00;100782.91;5055571;28;20442;-69
2023/11/16 00:18:04;;;;;;;2.30;0.80;;;;;;;7.95;100.00;100773.19;5055172;28;20442;-69
2023/11/16 00:20:31;;;;;;;2.70;1.23;;;;;;;7.93;100.00;100778.06;5055347;28;20482;-69
2023/11/16 00:22:58;;;;;;;2.87;0.90;;;;;;;7.95;100.00;100772.38;5055422;28;20529;-69
2023/11/16 00:25:24;;;;;;;2.83;0.83;;;;;;;7.99;100.00;100778.84;5055895;28;20860;-69
2023/11/16 00:27:51;;;;;;;6.37;1.40;;;;;;;8.00;100.00;100775.06;5055809;28;20529;-69
2023/11/16 00:30:19;;;;;;;2.20;0.80;;;;;;;8.00;100.00;100775.06;5055582;28;20474;-69
2023/11/16 00:32:46;;;;;;;2.80;1.03;;;;;;;8.03;100.00;100780.69;5054880;28;20965;-69
2023/11/16 00:35:12;;;;;;;2.77;1.07;;;;;;;8.07;100.00;100775.56;5054795;28;21040;-69
2023/11/16 00:37:39;;;;;;;3.40;1.43;;;;;;;8.09;100.00;100768.78;5055557;28;20474;-69
2023/11/16 00:40:07;;;;;;;3.93;1.27;;;;;;;8.13;100.00;100773.63;5055184;28;20517;-69
2023/11/16 00:42:35;;;;;;;2.73;1.07;;;;;;;8.09;100.00;100767.97;5054550;28;20828;-69
2023/11/16 00:45:01;;;;;;;2.10;0.60;;;;;;;8.11;100.00;100771.22;5054895;28;20466;-69
2023/11/16 00:47:29;;;;;;;2.57;0.80;;;;;;;8.10;100.00;100764.19;5054916;28;20568;-68
2023/11/16 00:49:56;;;;;;;2.50;1.10;;;;;;;8.11;100.00;100763.13;5054543;28;20442;-68
2023/11/16 00:52:24;;;;;;;2.83;0.97;;;;;;;8.09;100.00;100765.28;5055166;28;20441;-68
2023/11/16 00:54:51;;;;;;;2.40;0.90;;;;;;;8.13;100.00;100763.63;5054668;28;20462;-68
2023/11/16 00:57:18;;;;;;;3.07;1.20;;;;;;;8.14;100.00;100759.84;5054659;28;20461;-68
2023/11/16 00:59:46;;;;;;;2.97;1.07;;;;;;;8.16;100.00;100754.19;5054641;28;20809;-68
2023/11/16 01:02:13;;;;;;;3.37;0.90;;;;;;;8.15;100.00;100755.28;5054314;28;20493;-68
2023/11/16 01:04:42;;;;;;;2.40;0.80;;;;;;;8.16;100.00;100751.50;5054571;28;20497;-68
2023/11/16 01:07:10;;;;;;;2.73;1.07;;;;;;;8.20;100.00;100757.94;5054454;28;20773;-68
2023/11/16 01:09:37;;;;;;;2.13;0.60;;;;;;;8.21;100.00;100757.66;5054445;28;20497;-69
2023/11/16 01:12:04;;;;;;;4.50;1.00;;;;;;;8.21;100.00;100749.56;5053884;28;20438;-69
2023/11/16 01:14:30;;;;;;;2.70;1.00;;;;;;;8.22;100.00;100756.56;5054314;28;20501;-69
2023/11/16 01:17:03;;;;;;;3.50;0.90;;;;;;;8.22;100.00;100751.16;5054333;28;20478;-69
2023/11/16 01:19:32;;;;;;;2.10;0.53;;;;;;;8.20;100.00;100747.94;5054667;28;20184;-69
2023/11/16 01:22:00;;;;;;;2.50;1.00;;;;;;;8.22;100.00;100753.84;5054624;28;20489;-69
2023/11/16 01:24:28;;;;;;;2.27;0.90;;;;;;;8.25;100.00;100749.81;5054148;28;20545;-69
2023/11/16 01:26:59;;;;;;;2.20;0.60;;;;;;;8.25;100.00;100742.50;5054269;28;20442;-69
2023/11/16 01:29:27;;;;;;;2.30;0.70;;;;;;;8.25;100.00;100753.31;5054081;28;20464;-69
2023/11/16 01:31:54;;;;;;;2.00;0.60;;;;;;;8.27;100.00;100748.41;5054042;28;20466;-69
2023/11/16 01:34:22;;;;;;;1.97;0.50;;;;;;;8.27;100.00;100742.22;5053672;28;20878;-69
2023/11/16 01:36:49;;;;;;;2.17;0.70;;;;;;;8.29;100.00;100740.06;5053760;28;21045;-69
2023/11/16 01:39:18;;;;;;;2.30;0.80;;;;;;;8.27;100.00;100739.53;5054018;28;20453;-69
2023/11/16 01:41:44;;;;;;;2.10;0.60;;;;;;;8.28;100.00;100741.16;5054198;28;20512;-69
2023/11/16 01:44:11;;;;;;;2.30;0.87;;;;;;;8.28;100.00;100736.56;5053857;28;20462;-69
2023/11/16 01:46:38;;;;;;;1.90;0.40;;;;;;;8.26;100.00;100740.63;5054581;28;20470;-69
2023/11/16 01:49:05;;;;;;;2.80;1.10;;;;;;;8.29;100.00;100729.28;5053794;28;20461;-69
2023/11/16 01:51:32;;;;;;;2.63;0.97;;;;;;;8.27;100.00;100729.53;5053679;28;20530;-69
2023/11/16 01:54:00;;;;;;;2.07;0.70;;;;;;;8.26;100.00;100730.63;5053697;28;20502;-69
2023/11/16 01:56:32;;;;;;;2.33;0.77;;;;;;;8.29;100.00;100723.88;5053276;28;20470;-69
2023/11/16 01:59:02;;;;;;;2.03;0.57;;;;;;;8.31;100.00;100729.78;5053357;28;20509;-69
2023/11/16 02:01:30;;;;;;;2.40;0.90;;;;;;;8.31;100.00;100727.88;5053831;28;20490;-69
2023/11/16 02:03:57;;;;;;;2.13;1.00;;;;;;;8.34;100.00;100729.22;5053565;28;20494;-69
2023/11/16 02:06:24;;;;;;;2.43;0.87;;;;;;;8.31;100.00;100721.69;5053519;28;20513;-69
2023/11/16 02:08:51;;;;;;;2.80;0.90;;;;;;;8.32;100.00;100728.69;5053668;28;20820;-69
2023/11/16 02:11:17;;;;;;;2.60;0.70;;;;;;;8.32;100.00;100723.28;5053551;28;20442;-69
2023/11/16 02:13:46;;;;;;;4.37;1.07;;;;;;;8.31;100.00;100719.78;5053806;28;20505;-69
2023/11/16 02:16:13;;;;;;;2.30;0.80;;;;;;;8.34;100.00;100718.44;5053228;28;20442;-68
2023/11/16 02:18:40;;;;;;;2.33;0.70;;;;;;;8.37;100.00;100720.59;5053515;28;20482;-68
2023/11/16 02:21:07;;;;;;;2.83;0.90;;;;;;;8.37;100.00;100717.06;5053294;28;21020;-68
2023/11/16 02:23:36;;;;;;;2.20;0.73;;;;;;;8.36;100.00;100718.94;5058153;28;21056;-68
2023/11/16 02:26:04;;;;;;;2.17;0.57;;;;;;;8.38;100.00;100719.50;5060038;28;20438;-68
2023/11/16 02:28:30;;;;;;;2.00;0.60;;;;;;;8.37;100.00;100715.22;5059696;28;20921;-68
2023/11/16 02:31:00;;;;;;;3.17;1.00;;;;;;;8.38;100.00;100719.50;5060165;28;20851;-68
2023/11/16 02:33:27;;;;;;;2.07;0.50;;;;;;;8.43;100.00;100713.25;5059866;28;20458;-68
2023/11/16 02:35:54;;;;;;;2.20;0.60;;;;;;;8.43;100.00;100718.66;5060430;28;20442;-68
2023/11/16 02:38:21;;;;;;;3.13;1.00;;;;;;;8.46;100.00;100715.41;5059989;28;20495;-68
2023/11/16 02:40:51;;;;;;;4.03;1.40;;;;;;;8.45;100.00;100716.47;5059529;28;20806;-69
2023/11/16 02:43:18;;;;;;;3.60;1.50;;;;;;;8.46;100.00;100699.22;5060180;28;20497;-69
2023/11/16 02:45:45;;;;;;;2.00;0.60;;;;;;;8.45;100.00;100708.38;5059531;28;20438;-69
2023/11/16 02:48:13;;;;;;;1.93;0.60;;;;;;;8.42;100.00;100700.84;5059859;28;20438;-69
2023/11/16 02:50:39;;;;;;;2.20;0.57;;;;;;;8.41;100.00;100704.63;5059800;28;20442;-69
2023/11/16 02:53:06;;;;;;;2.73;0.80;;;;;;;8.39;100.00;100701.41;5059686;28;20441;-69
2023/11/16 02:55:34;;;;;;;2.30;0.73;;;;;;;8.40;100.00;100700.31;5060046;28;20298;-69
2023/11/16 02:58:02;;;;;;;2.13;0.57;;;;;;;8.40;100.00;100697.63;5059441;28;20952;-69
2023/11/16 03:00:31;;;;;;;2.80;0.80;;;;;;;8.42;100.00;100696.25;5059761;28;20446;-69
2023/11/16 03:02:58;;;;;;;2.73;1.03;;;;;;;8.40;100.00;100692.22;5059304;28;20486;-69
2023/11/16 03:05:25;;;;;;;2.23;0.70;;;;;;;8.42;100.00;100693.56;5059822;28;20442;-69
2023/11/16 03:07:53;;;;;;;2.90;1.00;;;;;;;8.45;100.00;100694.88;5059813;28;20446;-68
2023/11/16 03:10:21;;;;;;;2.20;0.80;;;;;;;8.46;100.00;100688.41;5059670;28;20441;-67
2023/11/16 03:12:48;;;;;;;1.93;0.53;;;;;;;8.45;100.00;100692.19;5059354;28;20814;-67
2023/11/16 03:15:17;;;;;;;2.60;0.67;;;;;;;8.48;100.00;100694.31;5059443;28;20497;-67
2023/11/16 03:17:44;;;;;;;2.10;0.67;;;;;;;8.46;100.00;100691.09;5059631;28;20446;-68
2023/11/16 03:20:12;;;;;;;2.90;1.10;;;;;;;8.47;100.00;100692.72;5060100;28;20500;-69
2023/11/16 03:22:39;;;;;;;2.40;0.80;;;;;;;8.46;100.00;100691.09;5059720;28;20481;-69
2023/11/16 03:25:07;;;;;;;2.60;1.17;;;;;;;8.49;100.00;100691.31;5059361;28;20469;-69
2023/11/16 03:27:34;;;;;;;2.00;0.60;;;;;;;8.46;100.00;100685.72;5059317;28;20960;-69
2023/11/16 03:30:02;;;;;;;2.20;0.70;;;;;;;8.46;100.00;100681.13;5059483;28;20449;-68
2023/11/16 03:32:30;;;;;;;2.40;0.80;;;;;;;8.46;100.00;100683.00;5059645;28;20442;-68
2023/11/16 03:34:57;;;;;;;2.50;0.90;;;;;;;8.46;100.00;100680.31;5056528;28;20544;-68
2023/11/16 03:37:23;;;;;;;2.03;0.53;;;;;;;8.43;100.00;100678.16;5056360;28;20438;-68
2023/11/16 03:39:50;;;;;;;2.00;0.50;;;;;;;8.42;100.00;100679.25;5056267;28;20442;-68
2023/11/16 03:42:18;;;;;;;2.30;0.80;;;;;;;8.44;100.00;100679.78;5056212;28;20573;-68
2023/11/16 03:44:44;;;;;;;2.03;0.70;;;;;;;8.43;100.00;100676.28;5056149;28;20482;-68
2023/11/16 03:47:11;;;;;;;2.33;0.80;;;;;;;8.45;100.00;100678.69;5056524;28;20496;-68
2023/11/16 03:49:39;;;;;;;2.00;0.50;;;;;;;8.44;100.00;100679.78;5056375;28;20473;-68
2023/11/16 03:52:06;;;;;;;2.00;0.50;;;;;;;8.44;100.00;100669.78;5056420;28;20813;-68
2023/11/16 03:54:33;;;;;;;2.73;0.93;;;;;;;8.47;100.00;100668.41;5056254;28;20876;-68
2023/11/16 03:57:00;;;;;;;2.03;0.70;;;;;;;8.50;100.00;100671.34;5056303;28;20499;-68
2023/11/16 03:59:27;;;;;;;2.10;0.77;;;;;;;8.48;100.00;100670.03;5055812;28;20867;-68
2023/11/16 04:01:55;;;;;;;2.33;1.03;;;;;;;8.49;100.00;100666.22;5055689;28;20533;-68
2023/11/16 04:04:21;;;;;;;2.60;0.70;;;;;;;8.49;100.00;100660.81;5055547;28;20458;-68
2023/11/16 04:06:50;;;;;;;1.90;0.60;;;;;;;8.48;100.00;100664.63;5055817;28;20449;-68
2023/11/16 04:09:17;;;;;;;2.47;0.90;;;;;;;8.49;100.00;100660.81;5055802;28;20529;-68
2023/11/16 04:11:44;;;;;;;2.30;0.70;;;;;;;8.50;100.00;100659.72;5055638;28;21047;-69
2023/11/16 04:14:12;;;;;;;4.57;0.60;;;;;;;8.49;100.00;100652.72;5055323;28;20984;-69
2023/11/16 04:16:39;;;;;;;2.30;0.90;;;;;;;8.48;100.00;100653.81;5055512;28;20434;-69
2023/11/16 04:19:05;;;;;;;2.90;0.73;;;;;;;8.51;100.00;100645.97;5055145;28;20489;-69
2023/11/16 04:21:36;;;;;;;2.23;0.83;;;;;;;8.50;100.00;100643.53;5055024;28;20540;-69
2023/11/16 04:24:10;;;;;;;2.30;0.87;;;;;;;8.48;100.00;100648.44;5055418;28;20473;-69
2023/11/16 04:26:38;;;;;;;2.70;1.00;;;;;;;8.47;100.00;100653.03;5055411;28;20434;-69
2023/11/16 04:29:06;;;;;;;2.20;0.63;;;;;;;8.47;100.00;100649.53;5055774;28;20445;-69
2023/11/16 04:31:32;;;;;;;2.00;0.60;;;;;;;8.46;100.00;100653.31;5055650;28;20488;-69
2023/11/16 04:33:59;;;;;;;1.93;0.53;;;;;;;8.44;100.00;100642.78;5055032;28;20458;-69
2023/11/16 04:36:28;;;;;;;2.47;0.83;;;;;;;8.40;100.00;100643.66;5055910;28;20529;-69
2023/11/16 04:38:56;;;;;;;2.93;0.93;;;;;;;8.33;100.00;100639.38;5055266;28;20446;-69
2023/11/16 04:41:24;;;;;;;2.30;0.87;;;;;;;8.28;100.00;100641.31;5055099;28;20910;-69
2023/11/16 04:43:51;;;;;;;3.80;1.00;;;;;;;8.25;100.00;100642.66;5054564;28;20977;-69
2023/11/16 04:46:19;;;;;;;2.67;1.17;;;;;;;8.23;100.00;100638.63;5055146;28;20841;-69
2023/11/16 04:48:46;;;;;;;2.40;0.90;;;;;;;8.24;100.00;100629.47;5055266;28;20464;-69
2023/11/16 04:51:17;;;;;;;2.37;0.60;;;;;;;8.23;100.00;100630.53;5055220;28;20450;-69
2023/11/16 04:53:43;;;;;;;2.23;0.63;;;;;;;8.26;100.00;100638.88;5054877;28;20545;-69
2023/11/16 04:56:10;;;;;;;2.53;1.00;;;;;;;8.32;100.00;100635.06;5054425;28;20534;-70
2023/11/16 04:58:38;;;;;;;2.30;0.87;;;;;;;8.38;100.00;100630.44;5054732;28;20521;-70
2023/11/16 05:01:05;;;;;;;2.10;0.53;;;;;;;8.38;100.00;100622.34;5054406;28;20481;-70
2023/11/16 05:03:32;;;;;;;3.40;0.80;;;;;;;8.37;100.00;100623.44;5054076;28;20494;-70
2023/11/16 05:05:59;;;;;;;3.07;1.07;;;;;;;8.36;100.00;100619.06;5054388;28;20965;-69
2023/11/16 05:08:25;;;;;;;2.90;1.20;;;;;;;8.35;100.00;100609.38;5055029;28;20522;-68
2023/11/16 05:10:52;;;;;;;2.10;0.67;;;;;;;8.34;100.00;100613.97;5054267;28;20449;-70
2023/11/16 05:13:21;;;;;;;2.60;1.17;;;;;;;8.33;100.00;100603.47;5054389;28;20970;-69
2023/11/16 05:15:49;;;;;;;3.10;1.23;;;;;;;8.36;100.00;100605.59;5054348;28;20438;-68
2023/11/16 05:18:16;;;;;;;2.00;0.50;;;;;;;8.33;100.00;100601.59;5054466;28;20824;-68
2023/11/16 05:20:43;;;;;;;3.93;0.90;;;;;;;8.30;100.00;100599.44;5054773;28;21001;-69
2023/11/16 05:23:10;;;;;;;2.00;0.60;;;;;;;8.37;100.00;100595.63;5054070;28;20577;-68
2023/11/16 05:25:37;;;;;;;2.10;0.77;;;;;;;8.43;100.00;100594.50;5054924;28;20434;-68
2023/11/16 05:28:05;;;;;;;2.70;1.10;;;;;;;8.42;100.00;100598.28;5054188;28;20442;-68
2023/11/16 05:30:33;;;;;;;2.20;0.70;;;;;;;8.39;100.00;100591.56;5054150;28;20434;-68
2023/11/16 05:33:01;;;;;;;2.77;0.80;;;;;;;8.39;100.00;100593.47;5054381;28;20802;-68
2023/11/16 05:35:28;;;;;;;2.50;0.77;;;;;;;8.39;100.00;100580.75;5054157;28;20532;-69
2023/11/16 05:37:55;;;;;;;2.20;0.63;;;;;;;8.41;100.00;100599.34;5053806;28;20850;-69
2023/11/16 05:40:21;;;;;;;2.97;1.00;;;;;;;8.44;100.00;100591.50;5053352;28;20451;-69
2023/11/16 05:42:48;;;;;;;2.23;0.63;;;;;;;8.43;100.00;100599.91;5053547;28;20488;-69
2023/11/16 05:45:15;;;;;;;2.37;0.60;;;;;;;8.44;100.00;100585.31;5053717;28;20494;-69
2023/11/16 05:47:42;;;;;;;2.00;0.80;;;;;;;8.43;100.00;100586.41;5053545;28;20525;-69
2023/11/16 05:50:10;;;;;;;2.63;1.00;;;;;;;8.42;100.00;100588.28;5053481;28;20523;-69
2023/11/16 05:52:37;;;;;;;6.50;0.83;;;;;;;8.45;100.00;100584.22;5053212;28;20435;-69
2023/11/16 05:55:05;;;;;;;2.73;0.60;;;;;;;8.43;100.00;100584.50;5053050;28;20958;-69
2023/11/16 05:57:32;;;;;;;2.93;0.93;;;;;;;8.44;100.00;100591.50;5052858;28;20441;-69
2023/11/16 05:59:59;;;;;;;2.60;0.90;;;;;;;8.49;100.00;100586.03;5053520;28;20537;-69
2023/11/16 06:02:26;;;;;;;2.10;0.70;;;;;;;8.48;100.00;100576.34;5053200;28;20486;-69
2023/11/16 06:04:53;;;;;;;2.20;0.60;;;;;;;8.44;100.00;100574.50;5053488;28;20462;-70
2023/11/16 06:07:21;;;;;;;2.43;0.80;;;;;;;8.47;100.00;100573.94;5053859;28;20819;-70
2023/11/16 06:09:48;;;;;;;2.50;0.87;;;;;;;8.49;100.00;100574.44;5053220;28;20526;-69
2023/11/16 06:12:18;;;;;;;2.10;0.77;;;;;;;8.49;100.00;100575.25;5053405;28;20438;-70
2023/11/16 06:14:52;;;;;;;2.00;0.70;;;;;;;8.52;100.00;100565.78;5053511;28;20520;-69
2023/11/16 06:17:18;;;;;;;7.33;1.00;;;;;;;8.51;100.00;100577.69;5053391;28;20431;-69
2023/11/16 06:19:53;;;;;;;3.03;0.90;;;;;;;8.53;100.00;100573.59;5053355;28;20525;-69
2023/11/16 06:22:21;;;;;;;3.23;1.50;;;;;;;8.57;100.00;100571.13;5053264;28;20767;-69
2023/11/16 06:24:48;;;;;;;2.70;0.90;;;;;;;8.57;100.00;100569.22;5053378;28;20531;-69
2023/11/16 06:27:15;;;;;;;2.47;1.13;;;;;;;8.61;100.00;100568.66;5053137;28;20989;-69
2023/11/16 06:29:42;;;;;;;2.00;0.70;;;;;;;8.61;100.00;100572.16;5053391;28;20477;-69
2023/11/16 06:32:09;;;;;;;2.70;0.90;;;;;;;8.58;100.00;100562.72;5053843;28;20486;-69
2023/11/16 06:34:35;;;;;;;2.37;0.73;;;;;;;8.58;100.00;100564.63;5053265;28;20492;-69
2023/11/16 06:37:04;;;;;;;2.90;0.80;;;;;;;8.58;100.00;100562.72;5053200;28;20810;-70
2023/11/16 06:39:32;;;;;;;3.00;1.00;;;;;;;8.62;100.00;100573.75;5053442;28;20450;-69
2023/11/16 06:41:59;;;;;;;2.57;0.87;;;;;;;8.64;100.00;100568.09;5053599;28;20448;-69
2023/11/16 06:44:27;;;;;;;2.03;0.60;;;;;;;8.62;100.00;100564.84;5053216;28;20490;-69
2023/11/16 06:46:54;;;;;;;2.10;0.70;;;;;;;8.61;100.00;100557.84;5053689;28;20499;-69
2023/11/16 06:49:21;;;;;;;2.83;0.77;;;;;;;8.60;100.00;100562.44;5053254;28;20818;-69
2023/11/16 06:51:48;;;;;;;3.20;0.77;;;;;;;8.61;100.00;100561.34;5053658;28;20450;-69
2023/11/16 06:54:17;;;;;;;4.10;1.20;;;;;;;8.66;100.00;100550.50;5053777;28;20454;-69
2023/11/16 06:56:45;;;;;;;2.37;0.80;;;;;;;8.66;100.00;100549.69;5053181;28;20442;-70
2023/11/16 06:59:15;;;;;;;2.50;0.80;;;;;;;8.68;100.00;100551.03;5052744;28;20867;-70
2023/11/16 07:01:42;;;;;;;4.00;0.87;;;;;;;8.69;100.00;100538.31;5067443;22;20522;-70
2023/11/16 07:04:09;;;;;;;2.57;0.73;;;;;;;8.72;100.00;100543.94;5052561;28;20490;-68
2023/11/16 07:06:36;;;;;;;2.90;0.87;;;;;;;8.76;100.00;100550.34;5052858;28;20449;-69
2023/11/16 07:09:03;;;;;;;2.40;0.80;;;;;;;8.75;100.00;100551.44;5053151;28;20449;-69
2023/11/16 07:11:29;;;;;;;1.90;0.50;;;;;;;8.76;100.00;100546.84;5056786;28;20496;-70
2023/11/16 07:13:57;;;;;;;2.80;0.97;;;;;;;8.76;100.00;100553.06;5056937;28;20454;-70
2023/11/16 07:16:24;;;;;;;2.57;0.80;;;;;;;8.81;100.00;100558.41;5056635;28;20452;-72
2023/11/16 07:18:52;;;;;;;2.60;0.93;;;;;;;8.81;100.00;100554.91;5056565;28;20880;-70
2023/11/16 07:21:19;;;;;;;2.20;0.80;;;;;;;8.83;100.00;100556.22;5056592;28;20453;-70
2023/11/16 07:23:45;;;;;;;2.30;0.90;;;;;;;8.86;100.00;100562.16;5056320;28;20573;-69
2023/11/16 07:26:14;;;;;;;5.63;1.37;;;;;;;8.92;100.00;100558.28;5056836;28;20446;-68
2023/11/16 07:28:42;;;;;;;3.20;0.80;;;;;;;8.93;100.00;100565.28;5056779;28;20495;-69
2023/11/16 07:31:12;;;;;;;2.17;0.67;;;;;;;8.96;100.00;100562.81;5056647;28;20806;-67
2023/11/16 07:33:39;;;;;;;2.20;0.83;;;;;;;8.92;100.00;100569.09;5056295;28;20461;-66
2023/11/16 07:36:07;;;;;;;2.00;0.57;;;;;;;8.88;100.00;100568.84;5055881;28;20930;-66
2023/11/16 07:38:33;;;;;;;2.23;0.73;;;;;;;8.85;100.00;100564.00;5055957;28;20473;-67
2023/11/16 07:41:01;;;;;;;2.60;1.10;;;;;;;8.82;100.00;100570.81;5056184;28;20441;-67
2023/11/16 07:43:27;;;;;;;2.50;0.60;;;;;;;8.82;100.00;100562.72;5056357;28;20490;-68
2023/11/16 07:45:54;;;;;;;2.10;0.60;;;;;;;8.79;100.00;100560.59;5056281;28;20438;-67
2023/11/16 07:48:24;;;;;;;2.07;0.50;;;;;;;8.79;100.00;100568.69;5055753;28;20466;-67
2023/11/16 07:50:51;;;;;;;2.10;0.50;;;;;;;8.80;100.00;100566.78;5056288;28;20455;-68
2023/11/16 07:53:18;;;;;;;2.13;0.70;;;;;;;8.77;100.00;100568.19;5056087;28;20459;-68
2023/11/16 07:55:48;;;;;;;8.70;1.27;;;;;;;8.76;100.00;100573.84;5055924;28;20488;-68
2023/11/16 07:58:17;;;;;;;2.60;1.03;;;;;;;8.78;100.00;100572.50;5055923;28;20441;-67
2023/11/16 08:00:55;;;;;;;2.60;1.10;;;;;;;8.76;100.00;100563.84;5056122;28;20498;-67
2023/11/16 08:06:12;;;;;;;2.20;0.77;;;;;;;8.63;100.00;100567.25;5055923;28;20452;-67
2023/11/16 08:08:41;;;;;;;2.57;0.70;;;;;;;8.61;100.00;100565.94;5055337;28;20427;-68
2023/11/16 08:11:08;;;;;;;2.00;0.60;;;;;;;8.61;100.00;100564.06;5055630;28;20823;-68
2023/11/16 08:13:35;;;;;;;2.17;0.70;;;;;;;8.61;100.00;100563.25;5055552;28;20546;-67
2023/11/16 08:16:04;;;;;;;2.30;0.70;;;;;;;8.62;100.00;100571.06;5055308;28;20940;-68
2023/11/16 08:18:32;;;;;;;5.80;0.80;;;;;;;8.64;100.00;100563.50;5055236;28;20938;-69
2023/11/16 08:20:59;;;;;;;2.57;0.90;;;;;;;8.65;100.00;100570.50;5055028;28;20443;-71
2023/11/16 08:23:29;;;;;;;2.63;0.80;;;;;;;8.66;100.00;100564.00;5055479;28;20855;-71
2023/11/16 08:25:57;;;;;;;1.87;0.40;;;;;;;8.68;100.00;100572.63;5055192;28;20993;-68
2023/11/16 08:28:25;;;;;;;2.20;0.63;;;;;;;8.70;100.00;100573.13;5055254;28;20564;-70
2023/11/16 08:30:53;;;;;;;2.20;0.77;;;;;;;8.70;100.00;100578.53;5055001;28;20961;-70
2023/11/16 08:33:20;;;;;;;2.20;0.87;;;;;;;8.77;100.00;100565.50;5055496;28;20466;-70
2023/11/16 08:35:48;;;;;;;2.83;0.73;;;;;;;8.82;100.00;100570.03;5054919;28;20816;-69
2023/11/16 08:38:15;;;;;;;2.20;0.63;;;;;;;8.82;100.00;100568.13;5055223;28;20438;-71
2023/11/16 08:40:43;;;;;;;2.60;0.83;;;;;;;8.88;100.00;100565.34;5054936;28;21018;-69
2023/11/16 08:43:11;;;;;;;1.93;0.53;;;;;;;8.93;100.00;100570.69;5055015;28;20486;-69
2023/11/16 08:45:39;;;;;;;2.10;0.50;;;;;;;8.97;100.00;100582.50;5054709;28;20474;-68
2023/11/16 08:48:07;;;;;;;2.27;0.67;;;;;;;8.99;100.00;100581.13;5055140;28;20465;-68
2023/11/16 08:50:34;;;;;;;2.17;0.53;;;;;;;9.05;100.00;100585.38;5054769;28;20446;-69
2023/11/16 08:53:07;;;;;;;3.83;1.10;;;;;;;9.06;100.00;100584.28;5054727;28;20466;-68
2023/11/16 08:55:34;;;;;;;1.97;0.50;;;;;;;9.07;100.00;100583.19;5054557;28;20851;-67
2023/11/16 08:58:01;;;;;;;3.37;1.00;;;;;;;9.11;100.00;100586.09;5054794;28;20430;-68
2023/11/16 09:00:33;;;;;;;2.80;0.93;;;;;;;9.10;100.00;100593.41;5055053;28;20442;-69
2023/11/16 09:03:04;;;;;;;2.03;0.63;;;;;;;9.14;100.00;100598.25;5054228;28;20907;-67
2023/11/16 09:05:32;;;;;;;2.10;0.63;;;;;;;9.16;100.00;100596.03;5055271;28;20433;-66
2023/11/16 09:08:00;;;;;;;2.63;0.90;;;;;;;9.22;100.00;100593.00;5054824;28;20443;-68
2023/11/16 09:10:31;;;;;;;2.57;0.60;;;;;;;9.23;100.00;100607.31;5054190;28;20472;-68
2023/11/16 09:12:59;;;;;;;2.90;0.47;;;;;;;9.34;100.00;100611.47;5054406;28;20427;-67
2023/11/16 09:15:26;;;;;;;4.43;1.20;;;;;;;9.36;100.00;100609.28;5054436;28;20434;-67
2023/11/16 09:17:54;;;;;;;5.90;1.30;;;;;;;9.35;100.00;100603.06;5054356;28;20446;-67
2023/11/16 09:20:23;;;;;;;3.63;1.00;;;;;;;9.33;97.89;100607.16;5054182;28;20452;-67
2023/11/16 09:22:50;;;;;;;3.70;0.60;;;;;;;9.35;95.33;100613.09;5054301;28;20442;-67
2023/11/16 09:25:19;;;;;;;2.23;0.60;;;;;;;9.30;94.87;100613.16;5053726;28;20488;-67
2023/11/16 09:27:50;;;;;;;2.40;0.80;;;;;;;9.17;93.08;100606.56;5054121;28;20446;-65
2023/11/16 09:30:18;;;;;;;1.90;0.40;;;;;;;9.12;90.34;100603.94;5054202;28;20436;-64
2023/11/16 09:32:45;;;;;;;1.80;0.40;;;;;;;9.17;91.88;100601.16;5053572;28;20438;-65
2023/11/16 09:35:14;;;;;;;1.80;0.40;;;;;;;9.22;93.00;100600.28;5054057;28;20494;-65
2023/11/16 09:37:44;;;;;;;3.90;0.50;;;;;;;9.32;92.91;100611.75;5054112;28;20446;-64
2023/11/16 09:40:13;;;;;;;1.80;0.40;;;;;;;9.43;89.17;100611.59;5054330;28;20434;-65
2023/11/16 09:42:43;;;;;;;2.47;0.50;;;;;;;9.43;90.07;100592.69;5054098;28;20445;-66
2023/11/16 09:45:11;;;;;;;1.90;0.40;;;;;;;9.39;91.70;100586.28;5054094;28;20492;-65
2023/11/16 09:47:44;;;;;;;1.80;0.30;;;;;;;9.41;89.15;100600.28;5053543;28;20877;-65
2023/11/16 09:50:13;;;;;;;1.90;0.40;;;;;;;9.43;88.48;100595.38;5053516;28;20431;-65
2023/11/16 09:52:40;;;;;;;1.80;0.40;;;;;;;9.45;89.11;100583.19;5054148;28;20448;-65
2023/11/16 09:55:10;;;;;;;1.90;0.40;;;;;;;9.52;89.50;100599.06;5053654;28;20458;-65
2023/11/16 09:57:41;;;;;;;1.80;0.40;;;;;;;9.50;90.51;100585.81;5053553;28;21000;-67
2023/11/16 10:00:15;;;;;;;1.80;0.40;;;;;;;9.52;89.71;100588.25;5053830;28;20516;-69
2023/11/16 10:02:45;;;;;;;1.90;0.50;;;;;;;9.50;91.10;100580.41;5053714;28;20523;-67
2023/11/16 10:05:34;;;;;;;1.80;0.30;;;;;;;9.64;88.75;100571.53;5053626;28;20486;-66
2023/11/16 10:08:04;;;;;;;2.20;0.40;;;;;;;9.61;88.80;100570.25;5053808;28;20461;-67
2023/11/16 10:10:33;;;;;;;2.13;0.47;;;;;;;9.70;86.33;100567.69;5053745;28;20464;-67
2023/11/16 10:13:00;;;;;;;1.80;0.30;;;;;;;9.74;85.23;100561.38;5053513;28;20513;-66
2023/11/16 10:15:27;;;;;;;1.90;0.40;;;;;;;9.79;84.12;100560.50;5053324;28;20441;-66
2023/11/16 10:17:56;;;;;;;2.30;0.43;;;;;;;9.80;84.91;100551.28;5053244;28;20438;-67
2023/11/16 10:20:23;;;;;;;2.00;0.60;;;;;;;9.82;85.99;100547.16;5053607;28;20528;-67
2023/11/16 10:22:53;;;;;;;1.90;0.47;;;;;;;9.87;84.13;100557.09;5053721;28;21006;-67
2023/11/16 10:25:23;;;;;;;1.80;0.30;;;;;;;9.95;81.07;100542.88;5053513;28;20493;-67
2023/11/16 10:27:49;;;;;;;1.80;0.30;;;;;;;9.89;81.57;100537.88;5053451;28;20478;-67
2023/11/16 10:30:16;;;;;;;1.80;0.30;;;;;;;9.99;80.94;100532.28;5054030;28;20551;-66
2023/11/16 10:32:46;;;;;;;1.80;0.40;;;;;;;10.04;79.87;100535.69;5054228;28;20815;-67
2023/11/16 10:35:15;;;;;;;1.80;0.30;;;;;;;10.10;78.23;100552.66;5053679;28;20470;-67
2023/11/16 10:37:44;;;;;;;1.97;0.47;;;;;;;10.14;76.85;100548.25;5053271;28;20438;-67
2023/11/16 10:40:12;;;;;;;1.80;0.40;;;;;;;10.20;77.40;100536.22;5053704;28;20449;-68
2023/11/16 10:42:41;;;;;;;1.73;0.30;;;;;;;10.27;77.06;100530.41;5054064;28;20446;-67
2023/11/16 10:45:14;;;;;;;2.57;0.60;;;;;;;10.34;75.63;100528.94;5056787;28;20897;-66
2023/11/16 10:47:42;;;;;;;1.90;0.40;;;;;;;10.40;75.51;100542.34;5057333;28;20920;-66
2023/11/16 10:50:10;;;;;;;1.90;0.40;;;;;;;10.51;78.05;100543.78;5058022;28;20446;-67
2023/11/16 10:52:42;;;;;;;1.80;0.40;;;;;;;10.67;75.89;100538.84;5057631;28;20530;-67
2023/11/16 10:55:16;;;;;;;1.80;0.30;;;;;;;10.80;75.09;100540.72;5057595;28;20469;-67
2023/11/16 10:57:43;;;;;;;2.00;0.40;;;;;;;10.80;72.82;100536.13;5058192;28;20434;-67
2023/11/16 11:00:16;;;;;;;2.00;0.53;;;;;;;10.71;75.06;100537.94;5057978;28;20473;-67
2023/11/16 11:02:44;;;;;;;1.90;0.40;;;;;;;10.71;76.05;100546.06;5057278;28;20461;-67
2023/11/16 11:05:11;;;;;;;1.90;0.40;;;;;;;10.70;75.20;100557.19;5057466;28;20493;-67
2023/11/16 11:07:48;;;;;;;1.80;0.40;;;;;;;10.49;76.63;100564.94;5057327;28;20812;-67
2023/11/16 11:10:17;;;;;;;2.00;0.53;;;;;;;10.22;79.58;100555.66;5058124;28;20449;-68
2023/11/16 11:12:45;;;;;;;1.70;0.30;;;;;;;10.05;80.09;100552.75;5058022;28;20855;-67
2023/11/16 11:15:14;;;;;;;1.83;0.40;;;;;;;9.83;81.30;100558.81;5057199;28;20454;-67
2023/11/16 11:17:43;;;;;;;1.70;0.30;;;;;;;9.73;80.93;100559.75;5057370;28;20449;-66
2023/11/16 11:20:11;;;;;;;1.90;0.43;;;;;;;9.60;80.48;100563.22;5059136;28;20442;-68
2023/11/16 11:22:42;;;;;;;2.23;0.50;;;;;;;9.58;78.67;100589.75;5057758;28;20450;-71
2023/11/16 11:25:22;;;;;;;1.80;0.40;;;;;;;9.51;78.37;100568.50;5057473;28;20517;-69
2023/11/16 11:27:51;;;;;;;2.43;0.40;;;;;;;9.53;76.48;100577.13;5057209;28;20422;-67
2023/11/16 11:30:21;;;;;;;2.43;0.70;;;;;;;9.50;76.89;100571.50;5057200;28;20457;-67
2023/11/16 11:32:53;;;;;;;1.80;0.40;;;;;;;9.51;77.28;100567.69;5057701;28;20474;-68